sensor_id;sensor_type;location;lat;lon;timestamp;temperature;humidity
12981;DHT22;6555;50.468;8.480;2024-01-15T00:04:59;1.50;59.50
12981;DHT22;6555;50.468;8.480;2024-01-15T00:10:02;1.50;59.50
12981;DHT22;6555;50.468;8.480;2024-01-15T00:15:07;1.50;59.60
12981;DHT22;6555;50.468;8.480;2024-01-15T00:20:11;1.50;59.60
12981;DHT22;6555;50.468;8.480;2024-01-15T00:25:14;1.50;59.70
12981;DHT22;6555;50.468;8.480;2024-01-15T00:30:19;1.40;59.70
12981;DHT22;6555;50.468;8.480;2024-01-15T00:35:22;1.50;59.80
12981;DHT22;6555;50.468;8.480;2024-01-15T00:40:25;1.40;59.80
12981;DHT22;6555;50.468;8.480;2024-01-15T00:45:29;1.40;60.00
12981;DHT22;6555;50.468;8.480;2024-01-15T00:50:33;1.40;60.10
12981;DHT22;6555;50.468;8.480;2024-01-15T00:55:36;1.40;60.20
12981;DHT22;6555;50.468;8.480;2024-01-15T01:00:40;1.30;60.20
12981;DHT22;6555;50.468;8.480;2024-01-15T01:05:44;1.30;60.40
12981;DHT22;6555;50.468;8.480;2024-01-15T01:10:47;1.30;60.40
12981;DHT22;6555;50.468;8.480;2024-01-15T01:15:51;1.30;60.50
12981;DHT22;6555;50.468;8.480;2024-01-15T01:20:54;1.30;60.60
12981;DHT22;6555;50.468;8.480;2024-01-15T01:25:57;1.30;60.50
12981;DHT22;6555;50.468;8.480;2024-01-15T01:31:02;1.30;60.50
12981;DHT22;6555;50.468;8.480;2024-01-15T01:36:07;1.40;60.50
12981;DHT22;6555;50.468;8.480;2024-01-15T01:41:11;1.40;60.50
12981;DHT22;6555;50.468;8.480;2024-01-15T01:46:16;1.40;60.50
12981;DHT22;6555;50.468;8.480;2024-01-15T01:51:20;1.40;60.50
12981;DHT22;6555;50.468;8.480;2024-01-15T01:56:24;1.40;60.50
12981;DHT22;6555;50.468;8.480;2024-01-15T02:01:29;1.40;60.40
12981;DHT22;6555;50.468;8.480;2024-01-15T02:06:33;1.40;60.40
12981;DHT22;6555;50.468;8.480;2024-01-15T02:11:36;1.40;60.40
12981;DHT22;6555;50.468;8.480;2024-01-15T02:16:41;1.40;60.40
12981;DHT22;6555;50.468;8.480;2024-01-15T02:21:44;1.40;60.50
12981;DHT22;6555;50.468;8.480;2024-01-15T02:26:49;1.40;60.50
12981;DHT22;6555;50.468;8.480;2024-01-15T02:31:52;1.40;60.50
12981;DHT22;6555;50.468;8.480;2024-01-15T02:36:55;1.30;60.60
12981;DHT22;6555;50.468;8.480;2024-01-15T02:42:00;1.40;60.60
12981;DHT22;6555;50.468;8.480;2024-01-15T02:47:03;1.40;60.60
12981;DHT22;6555;50.468;8.480;2024-01-15T02:52:06;1.30;60.70
12981;DHT22;6555;50.468;8.480;2024-01-15T02:57:11;1.30;60.70
12981;DHT22;6555;50.468;8.480;2024-01-15T03:02:14;1.30;60.70
12981;DHT22;6555;50.468;8.480;2024-01-15T03:07:17;1.30;60.80
12981;DHT22;6555;50.468;8.480;2024-01-15T03:12:22;1.40;60.80
12981;DHT22;6555;50.468;8.480;2024-01-15T03:17:25;1.40;60.70
12981;DHT22;6555;50.468;8.480;2024-01-15T03:22:28;1.40;60.70
12981;DHT22;6555;50.468;8.480;2024-01-15T03:27:32;1.40;60.80
12981;DHT22;6555;50.468;8.480;2024-01-15T03:32:36;1.40;60.80
12981;DHT22;6555;50.468;8.480;2024-01-15T03:37:39;1.40;60.80
12981;DHT22;6555;50.468;8.480;2024-01-15T03:42:43;1.30;60.90
12981;DHT22;6555;50.468;8.480;2024-01-15T03:47:46;1.30;60.90
12981;DHT22;6555;50.468;8.480;2024-01-15T03:52:50;1.30;60.90
12981;DHT22;6555;50.468;8.480;2024-01-15T03:57:54;1.30;60.90
12981;DHT22;6555;50.468;8.480;2024-01-15T04:02:57;1.30;60.90
12981;DHT22;6555;50.468;8.480;2024-01-15T04:08:00;1.30;61.00
12981;DHT22;6555;50.468;8.480;2024-01-15T04:13:05;1.30;61.00
12981;DHT22;6555;50.468;8.480;2024-01-15T04:18:08;1.30;61.00
12981;DHT22;6555;50.468;8.480;2024-01-15T04:23:11;1.30;61.00
12981;DHT22;6555;50.468;8.480;2024-01-15T04:28:16;1.30;61.00
12981;DHT22;6555;50.468;8.480;2024-01-15T04:33:19;1.30;61.10
12981;DHT22;6555;50.468;8.480;2024-01-15T04:38:22;1.30;61.20
12981;DHT22;6555;50.468;8.480;2024-01-15T04:43:26;1.30;61.20
12981;DHT22;6555;50.468;8.480;2024-01-15T04:48:29;1.30;61.10
12981;DHT22;6555;50.468;8.480;2024-01-15T04:53:34;1.30;61.10
12981;DHT22;6555;50.468;8.480;2024-01-15T04:58:38;1.30;61.10
12981;DHT22;6555;50.468;8.480;2024-01-15T05:03:41;1.40;61.10
12981;DHT22;6555;50.468;8.480;2024-01-15T05:08:45;1.40;61.00
12981;DHT22;6555;50.468;8.480;2024-01-15T05:13:49;1.40;61.00
12981;DHT22;6555;50.468;8.480;2024-01-15T05:18:52;1.40;61.00
12981;DHT22;6555;50.468;8.480;2024-01-15T05:23:55;1.40;61.00
12981;DHT22;6555;50.468;8.480;2024-01-15T05:29:00;1.40;61.00
12981;DHT22;6555;50.468;8.480;2024-01-15T05:34:03;1.40;61.10
12981;DHT22;6555;50.468;8.480;2024-01-15T05:39:06;1.40;61.00
12981;DHT22;6555;50.468;8.480;2024-01-15T05:44:10;1.40;61.10
12981;DHT22;6555;50.468;8.480;2024-01-15T05:49:13;1.40;61.10
12981;DHT22;6555;50.468;8.480;2024-01-15T05:54:18;1.40;61.10
12981;DHT22;6555;50.468;8.480;2024-01-15T05:59:23;1.50;61.20
12981;DHT22;6555;50.468;8.480;2024-01-15T06:04:27;1.50;61.80
12981;DHT22;6555;50.468;8.480;2024-01-15T06:09:30;1.40;61.00
12981;DHT22;6555;50.468;8.480;2024-01-15T06:14:35;1.50;61.10
12981;DHT22;6555;50.468;8.480;2024-01-15T06:19:38;1.50;61.10
12981;DHT22;6555;50.468;8.480;2024-01-15T06:24:41;1.50;61.00
12981;DHT22;6555;50.468;8.480;2024-01-15T06:29:46;1.50;61.00
12981;DHT22;6555;50.468;8.480;2024-01-15T06:34:52;1.60;60.90
12981;DHT22;6555;50.468;8.480;2024-01-15T06:39:55;1.60;60.70
12981;DHT22;6555;50.468;8.480;2024-01-15T06:45:00;1.60;60.60
12981;DHT22;6555;50.468;8.480;2024-01-15T06:50:03;1.60;60.60
12981;DHT22;6555;50.468;8.480;2024-01-15T06:55:09;1.50;60.70
12981;DHT22;6555;50.468;8.480;2024-01-15T07:00:15;1.50;60.80
12981;DHT22;6555;50.468;8.480;2024-01-15T07:05:19;1.50;60.90
12981;DHT22;6555;50.468;8.480;2024-01-15T07:10:22;1.50;60.90
12981;DHT22;6555;50.468;8.480;2024-01-15T07:15:27;1.50;61.00
12981;DHT22;6555;50.468;8.480;2024-01-15T07:20:30;1.50;61.00
12981;DHT22;6555;50.468;8.480;2024-01-15T07:25:33;1.60;61.10
12981;DHT22;6555;50.468;8.480;2024-01-15T07:30:38;1.60;61.10
12981;DHT22;6555;50.468;8.480;2024-01-15T07:35:41;1.60;61.10
12981;DHT22;6555;50.468;8.480;2024-01-15T07:40:44;1.60;61.20
12981;DHT22;6555;50.468;8.480;2024-01-15T07:45:52;1.60;61.20
12981;DHT22;6555;50.468;8.480;2024-01-15T07:50:55;1.60;61.20
12981;DHT22;6555;50.468;8.480;2024-01-15T07:55:58;1.60;61.20
12981;DHT22;6555;50.468;8.480;2024-01-15T08:01:03;1.70;61.40
12981;DHT22;6555;50.468;8.480;2024-01-15T08:06:08;1.70;61.50
12981;DHT22;6555;50.468;8.480;2024-01-15T08:11:11;1.70;61.50
12981;DHT22;6555;50.468;8.480;2024-01-15T08:16:16;1.80;61.50
12981;DHT22;6555;50.468;8.480;2024-01-15T08:21:19;1.80;61.50
12981;DHT22;6555;50.468;8.480;2024-01-15T08:26:22;1.90;61.60
12981;DHT22;6555;50.468;8.480;2024-01-15T08:31:27;1.90;61.60
12981;DHT22;6555;50.468;8.480;2024-01-15T08:36:30;1.90;61.60
12981;DHT22;6555;50.468;8.480;2024-01-15T08:41:33;1.90;61.50
12981;DHT22;6555;50.468;8.480;2024-01-15T08:46:38;2.00;61.50
12981;DHT22;6555;50.468;8.480;2024-01-15T08:51:41;2.00;61.50
12981;DHT22;6555;50.468;8.480;2024-01-15T08:56:44;2.00;61.40
12981;DHT22;6555;50.468;8.480;2024-01-15T09:01:49;2.10;61.50
12981;DHT22;6555;50.468;8.480;2024-01-15T09:06:52;2.10;61.40
12981;DHT22;6555;50.468;8.480;2024-01-15T09:11:55;2.10;61.50
12981;DHT22;6555;50.468;8.480;2024-01-15T09:17:00;2.10;61.60
12981;DHT22;6555;50.468;8.480;2024-01-15T09:22:03;2.20;61.60
12981;DHT22;6555;50.468;8.480;2024-01-15T09:27:06;2.20;61.70
12981;DHT22;6555;50.468;8.480;2024-01-15T09:32:10;2.30;61.80
12981;DHT22;6555;50.468;8.480;2024-01-15T09:37:14;2.40;61.80
12981;DHT22;6555;50.468;8.480;2024-01-15T09:42:37;2.50;61.70
12981;DHT22;6555;50.468;8.480;2024-01-15T09:47:42;2.50;61.60
12981;DHT22;6555;50.468;8.480;2024-01-15T09:52:48;2.50;61.40
12981;DHT22;6555;50.468;8.480;2024-01-15T09:57:52;2.60;61.40
12981;DHT22;6555;50.468;8.480;2024-01-15T10:02:59;2.70;61.30
12981;DHT22;6555;50.468;8.480;2024-01-15T10:08:04;2.70;61.30
12981;DHT22;6555;50.468;8.480;2024-01-15T10:13:08;2.80;61.40
12981;DHT22;6555;50.468;8.480;2024-01-15T10:18:12;2.90;61.40
12981;DHT22;6555;50.468;8.480;2024-01-15T10:23:16;2.90;61.20
12981;DHT22;6555;50.468;8.480;2024-01-15T10:28:19;3.00;61.20
12981;DHT22;6555;50.468;8.480;2024-01-15T10:33:24;3.00;61.10
12981;DHT22;6555;50.468;8.480;2024-01-15T10:38:28;3.10;61.30
12981;DHT22;6555;50.468;8.480;2024-01-15T10:43:31;3.20;61.20
12981;DHT22;6555;50.468;8.480;2024-01-15T10:48:36;3.30;61.10
12981;DHT22;6555;50.468;8.480;2024-01-15T10:53:39;3.40;61.00
12981;DHT22;6555;50.468;8.480;2024-01-15T10:58:43;3.50;60.90
12981;DHT22;6555;50.468;8.480;2024-01-15T11:03:47;3.60;60.80
12981;DHT22;6555;50.468;8.480;2024-01-15T11:08:52;3.70;60.50
12981;DHT22;6555;50.468;8.480;2024-01-15T11:13:55;3.80;60.00
12981;DHT22;6555;50.468;8.480;2024-01-15T11:19:03;3.80;59.90
12981;DHT22;6555;50.468;8.480;2024-01-15T11:24:10;3.80;59.80
12981;DHT22;6555;50.468;8.480;2024-01-15T11:29:29;3.80;60.00
12981;DHT22;6555;50.468;8.480;2024-01-15T11:34:54;3.90;59.80
12981;DHT22;6555;50.468;8.480;2024-01-15T11:40:02;4.00;59.70
12981;DHT22;6555;50.468;8.480;2024-01-15T11:45:07;4.00;59.60
12981;DHT22;6555;50.468;8.480;2024-01-15T11:50:11;4.00;59.30
12981;DHT22;6555;50.468;8.480;2024-01-15T11:55:19;3.90;59.50
12981;DHT22;6555;50.468;8.480;2024-01-15T12:00:25;3.90;59.60
12981;DHT22;6555;50.468;8.480;2024-01-15T12:05:29;3.80;59.60
12981;DHT22;6555;50.468;8.480;2024-01-15T12:10:32;3.80;59.70
12981;DHT22;6555;50.468;8.480;2024-01-15T12:15:36;3.70;59.70
12981;DHT22;6555;50.468;8.480;2024-01-15T12:20:42;3.70;59.80
12981;DHT22;6555;50.468;8.480;2024-01-15T12:25:46;3.60;60.00
12981;DHT22;6555;50.468;8.480;2024-01-15T12:30:49;3.50;60.20
12981;DHT22;6555;50.468;8.480;2024-01-15T12:35:54;3.50;60.30
12981;DHT22;6555;50.468;8.480;2024-01-15T12:40:59;3.50;60.40
12981;DHT22;6555;50.468;8.480;2024-01-15T12:46:03;3.40;60.50
12981;DHT22;6555;50.468;8.480;2024-01-15T12:51:08;3.40;60.60
12981;DHT22;6555;50.468;8.480;2024-01-15T12:56:11;3.40;60.70
12981;DHT22;6555;50.468;8.480;2024-01-15T13:01:14;3.50;61.10
12981;DHT22;6555;50.468;8.480;2024-01-15T13:06:19;3.40;61.10
12981;DHT22;6555;50.468;8.480;2024-01-15T13:11:22;3.50;61.50
12981;DHT22;6555;50.468;8.480;2024-01-15T13:16:25;3.60;61.40
12981;DHT22;6555;50.468;8.480;2024-01-15T13:21:31;3.60;61.30
12981;DHT22;6555;50.468;8.480;2024-01-15T13:26:35;3.60;61.30
12981;DHT22;6555;50.468;8.480;2024-01-15T13:31:38;3.60;61.30
12981;DHT22;6555;50.468;8.480;2024-01-15T13:36:43;3.70;61.30
12981;DHT22;6555;50.468;8.480;2024-01-15T13:41:47;3.70;61.30
12981;DHT22;6555;50.468;8.480;2024-01-15T13:46:50;3.70;61.30
12981;DHT22;6555;50.468;8.480;2024-01-15T13:51:55;3.70;61.30
12981;DHT22;6555;50.468;8.480;2024-01-15T13:56:59;3.70;61.40
12981;DHT22;6555;50.468;8.480;2024-01-15T14:02:03;3.70;61.30
12981;DHT22;6555;50.468;8.480;2024-01-15T14:07:08;3.70;61.30
12981;DHT22;6555;50.468;8.480;2024-01-15T14:12:11;3.70;61.30
12981;DHT22;6555;50.468;8.480;2024-01-15T14:17:14;3.70;61.30
12981;DHT22;6555;50.468;8.480;2024-01-15T14:22:19;3.70;61.30
12981;DHT22;6555;50.468;8.480;2024-01-15T14:27:22;3.70;61.20
12981;DHT22;6555;50.468;8.480;2024-01-15T14:32:25;3.70;61.20
12981;DHT22;6555;50.468;8.480;2024-01-15T14:37:30;3.70;61.10
12981;DHT22;6555;50.468;8.480;2024-01-15T14:42:34;3.60;61.10
12981;DHT22;6555;50.468;8.480;2024-01-15T14:47:37;3.60;61.30
12981;DHT22;6555;50.468;8.480;2024-01-15T14:52:41;3.60;61.20
12981;DHT22;6555;50.468;8.480;2024-01-15T14:57:46;3.60;62.00
12981;DHT22;6555;50.468;8.480;2024-01-15T15:02:51;3.60;61.20
12981;DHT22;6555;50.468;8.480;2024-01-15T15:07:55;3.60;61.20
12981;DHT22;6555;50.468;8.480;2024-01-15T15:12:58;3.60;61.90
12981;DHT22;6555;50.468;8.480;2024-01-15T15:18:01;3.60;61.10
12981;DHT22;6555;50.468;8.480;2024-01-15T15:23:06;3.70;61.30
12981;DHT22;6555;50.468;8.480;2024-01-15T15:28:11;3.60;61.00
12981;DHT22;6555;50.468;8.480;2024-01-15T15:33:16;3.60;60.90
12981;DHT22;6555;50.468;8.480;2024-01-15T15:38:21;3.60;61.00
12981;DHT22;6555;50.468;8.480;2024-01-15T15:43:25;3.60;60.90
12981;DHT22;6555;50.468;8.480;2024-01-15T15:48:28;3.60;60.90
12981;DHT22;6555;50.468;8.480;2024-01-15T15:53:33;3.50;60.90
12981;DHT22;6555;50.468;8.480;2024-01-15T15:58:36;3.60;60.90
12981;DHT22;6555;50.468;8.480;2024-01-15T16:03:39;3.50;60.90
12981;DHT22;6555;50.468;8.480;2024-01-15T16:08:44;3.50;60.90
12981;DHT22;6555;50.468;8.480;2024-01-15T16:13:47;3.50;61.00
12981;DHT22;6555;50.468;8.480;2024-01-15T16:18:50;3.50;60.90
12981;DHT22;6555;50.468;8.480;2024-01-15T16:24:14;3.50;61.10
12981;DHT22;6555;50.468;8.480;2024-01-15T16:29:30;3.50;61.10
12981;DHT22;6555;50.468;8.480;2024-01-15T16:34:33;3.50;61.10
12981;DHT22;6555;50.468;8.480;2024-01-15T16:39:39;3.40;61.00
12981;DHT22;6555;50.468;8.480;2024-01-15T16:44:42;3.40;61.10
12981;DHT22;6555;50.468;8.480;2024-01-15T16:49:45;3.40;61.20
12981;DHT22;6555;50.468;8.480;2024-01-15T16:54:49;3.40;61.30
12981;DHT22;6555;50.468;8.480;2024-01-15T16:59:53;3.30;61.30
12981;DHT22;6555;50.468;8.480;2024-01-15T17:04:56;3.30;61.30
12981;DHT22;6555;50.468;8.480;2024-01-15T17:10:02;3.30;61.40
12981;DHT22;6555;50.468;8.480;2024-01-15T17:15:06;3.30;61.30
12981;DHT22;6555;50.468;8.480;2024-01-15T17:20:10;3.30;61.30
12981;DHT22;6555;50.468;8.480;2024-01-15T17:25:14;3.30;61.30
12981;DHT22;6555;50.468;8.480;2024-01-15T17:30:17;3.30;61.40
12981;DHT22;6555;50.468;8.480;2024-01-15T17:35:20;3.30;61.30
12981;DHT22;6555;50.468;8.480;2024-01-15T17:40:25;3.30;61.30
12981;DHT22;6555;50.468;8.480;2024-01-15T17:45:28;3.20;61.40
12981;DHT22;6555;50.468;8.480;2024-01-15T17:50:31;3.20;61.40
12981;DHT22;6555;50.468;8.480;2024-01-15T17:55:36;3.20;61.40
12981;DHT22;6555;50.468;8.480;2024-01-15T18:00:39;3.30;61.40
12981;DHT22;6555;50.468;8.480;2024-01-15T18:05:42;3.20;61.30
12981;DHT22;6555;50.468;8.480;2024-01-15T18:10:47;3.20;61.30
12981;DHT22;6555;50.468;8.480;2024-01-15T18:15:55;3.20;61.30
12981;DHT22;6555;50.468;8.480;2024-01-15T18:20:59;3.20;61.40
12981;DHT22;6555;50.468;8.480;2024-01-15T18:26:04;3.10;61.50
12981;DHT22;6555;50.468;8.480;2024-01-15T18:31:07;3.10;61.60
12981;DHT22;6555;50.468;8.480;2024-01-15T18:36:10;3.10;61.60
12981;DHT22;6555;50.468;8.480;2024-01-15T18:41:20;3.10;61.50
12981;DHT22;6555;50.468;8.480;2024-01-15T18:46:24;3.10;61.50
12981;DHT22;6555;50.468;8.480;2024-01-15T18:51:27;3.10;61.40
12981;DHT22;6555;50.468;8.480;2024-01-15T18:56:31;3.10;61.40
12981;DHT22;6555;50.468;8.480;2024-01-15T19:01:36;3.10;61.30
12981;DHT22;6555;50.468;8.480;2024-01-15T19:06:39;3.00;61.10
12981;DHT22;6555;50.468;8.480;2024-01-15T19:11:45;3.10;61.20
12981;DHT22;6555;50.468;8.480;2024-01-15T19:16:48;3.00;61.80
12981;DHT22;6555;50.468;8.480;2024-01-15T19:21:51;3.00;61.10
12981;DHT22;6555;50.468;8.480;2024-01-15T19:26:56;3.00;61.10
12981;DHT22;6555;50.468;8.480;2024-01-15T19:31:59;3.00;61.20
12981;DHT22;6555;50.468;8.480;2024-01-15T19:37:02;3.00;61.20
12981;DHT22;6555;50.468;8.480;2024-01-15T19:42:07;2.90;61.30
12981;DHT22;6555;50.468;8.480;2024-01-15T19:47:11;2.90;61.30
12981;DHT22;6555;50.468;8.480;2024-01-15T19:52:14;2.90;61.30
12981;DHT22;6555;50.468;8.480;2024-01-15T19:57:18;2.90;61.30
12981;DHT22;6555;50.468;8.480;2024-01-15T20:02:21;2.80;61.30
12981;DHT22;6555;50.468;8.480;2024-01-15T20:07:24;2.80;61.20
12981;DHT22;6555;50.468;8.480;2024-01-15T20:12:29;2.80;61.20
12981;DHT22;6555;50.468;8.480;2024-01-15T20:17:32;2.80;61.30
12981;DHT22;6555;50.468;8.480;2024-01-15T20:22:36;2.80;61.40
12981;DHT22;6555;50.468;8.480;2024-01-15T20:27:40;2.80;61.40
12981;DHT22;6555;50.468;8.480;2024-01-15T20:32:43;2.80;61.40
12981;DHT22;6555;50.468;8.480;2024-01-15T20:37:47;2.80;61.50
12981;DHT22;6555;50.468;8.480;2024-01-15T20:42:51;2.90;61.50
12981;DHT22;6555;50.468;8.480;2024-01-15T20:47:54;2.90;61.40
12981;DHT22;6555;50.468;8.480;2024-01-15T20:52:59;2.90;61.30
12981;DHT22;6555;50.468;8.480;2024-01-15T20:58:04;2.90;61.30
12981;DHT22;6555;50.468;8.480;2024-01-15T21:03:07;2.90;61.30
12981;DHT22;6555;50.468;8.480;2024-01-15T21:08:10;3.00;61.20
12981;DHT22;6555;50.468;8.480;2024-01-15T21:13:15;2.90;61.20
12981;DHT22;6555;50.468;8.480;2024-01-15T21:18:18;3.00;61.20
12981;DHT22;6555;50.468;8.480;2024-01-15T21:23:22;3.00;61.20
12981;DHT22;6555;50.468;8.480;2024-01-15T21:28:26;3.00;61.10
12981;DHT22;6555;50.468;8.480;2024-01-15T21:33:32;3.00;61.20
12981;DHT22;6555;50.468;8.480;2024-01-15T21:38:39;3.00;61.10
12981;DHT22;6555;50.468;8.480;2024-01-15T21:43:43;3.00;61.10
12981;DHT22;6555;50.468;8.480;2024-01-15T21:48:46;3.10;61.10
12981;DHT22;6555;50.468;8.480;2024-01-15T21:53:49;3.10;61.00
12981;DHT22;6555;50.468;8.480;2024-01-15T21:58:54;3.00;60.80
12981;DHT22;6555;50.468;8.480;2024-01-15T22:03:57;3.10;60.90
12981;DHT22;6555;50.468;8.480;2024-01-15T22:09:01;3.10;60.90
12981;DHT22;6555;50.468;8.480;2024-01-15T22:14:05;3.10;60.90
12981;DHT22;6555;50.468;8.480;2024-01-15T22:19:09;3.00;60.80
12981;DHT22;6555;50.468;8.480;2024-01-15T22:24:13;3.00;60.90
12981;DHT22;6555;50.468;8.480;2024-01-15T22:29:18;3.00;60.90
12981;DHT22;6555;50.468;8.480;2024-01-15T22:34:21;3.00;61.00
12981;DHT22;6555;50.468;8.480;2024-01-15T22:39:25;3.00;60.90
12981;DHT22;6555;50.468;8.480;2024-01-15T22:44:31;3.00;61.00
12981;DHT22;6555;50.468;8.480;2024-01-15T22:49:34;3.00;61.00
12981;DHT22;6555;50.468;8.480;2024-01-15T22:54:37;3.00;61.00
12981;DHT22;6555;50.468;8.480;2024-01-15T22:59:41;3.00;61.00
12981;DHT22;6555;50.468;8.480;2024-01-15T23:04:44;3.00;60.90
12981;DHT22;6555;50.468;8.480;2024-01-15T23:09:48;3.00;60.90
12981;DHT22;6555;50.468;8.480;2024-01-15T23:14:53;3.00;60.90
12981;DHT22;6555;50.468;8.480;2024-01-15T23:19:56;3.00;60.80
12981;DHT22;6555;50.468;8.480;2024-01-15T23:24:59;3.00;60.80
12981;DHT22;6555;50.468;8.480;2024-01-15T23:30:05;3.00;60.90
12981;DHT22;6555;50.468;8.480;2024-01-15T23:35:08;2.90;60.90
12981;DHT22;6555;50.468;8.480;2024-01-15T23:40:11;2.80;60.90
12981;DHT22;6555;50.468;8.480;2024-01-15T23:45:17;2.80;61.00
12981;DHT22;6555;50.468;8.480;2024-01-15T23:50:20;2.80;61.00
12981;DHT22;6555;50.468;8.480;2024-01-15T23:55:23;2.80;61.00
